Time;durP1;ratioP1;P1;durP2;ratioP2;P2;SDS_P1;SDS_P2;PMS_P1;PMS_P2;Temp;Humidity;BMP_temperature;BMP_pressure;BME280_temperature;BME280_humidity;BME280_pressure;Samples;Min_cycle;Max_cycle;Signal;HPM_P1;HPM_P2
2023/03/03 00:00:50;;;;;;;16.73;11.23;;;4.40;99.90;;;;;;5074438;28;20455;-62
2023/03/03 00:03:19;;;;;;;16.30;11.87;;;4.40;99.90;;;;;;5073096;28;20634;-62
2023/03/03 00:05:46;;;;;;;18.30;12.20;;;4.40;99.90;;;;;;5076743;28;20412;-62
2023/03/03 00:08:14;;;;;;;22.23;13.60;;;4.30;99.90;;;;;;5077774;28;20889;-62
2023/03/03 00:10:41;;;;;;;17.80;12.25;;;4.40;99.90;;;;;;5077985;28;20419;-63
2023/03/03 00:13:15;;;;;;;17.48;12.38;;;4.30;99.90;;;;;;5078265;28;20428;-62
2023/03/03 00:15:43;;;;;;;17.93;12.43;;;4.20;99.90;;;;;;5078622;28;20498;-61
2023/03/03 00:18:22;;;;;;;20.67;12.15;;;4.30;99.90;;;;;;5078201;28;20443;-62
2023/03/03 00:20:52;;;;;;;18.10;13.02;;;4.20;99.90;;;;;;5076888;28;20472;-62
2023/03/03 00:23:36;;;;;;;17.55;11.50;;;4.10;99.90;;;;;;5075333;28;20777;-62
2023/03/03 00:26:16;;;;;;;19.88;12.45;;;4.10;99.90;;;;;;5073153;28;20869;-61
2023/03/03 00:28:46;;;;;;;19.20;13.20;;;4.00;99.90;;;;;;5076788;28;20433;-61
2023/03/03 00:31:19;;;;;;;18.95;11.77;;;4.00;99.90;;;;;;5075858;28;20421;-61
2023/03/03 00:33:49;;;;;;;20.10;13.00;;;4.10;99.90;;;;;;5076624;28;20453;-62
2023/03/03 00:36:30;;;;;;;18.95;12.82;;;4.10;99.90;;;;;;5075925;28;20811;-61
2023/03/03 00:39:12;;;;;;;18.85;13.05;;;4.10;99.90;;;;;;5075894;28;20431;-61
2023/03/03 00:41:40;;;;;;;20.38;13.25;;;4.00;99.90;;;;;;5075819;28;20770;-61
2023/03/03 00:44:32;;;;;;;19.35;13.68;;;4.00;99.90;;;;;;5076585;28;20681;-62
2023/03/03 00:47:13;;;;;;;21.55;12.75;;;4.00;99.90;;;;;;5078036;28;20432;-61
2023/03/03 00:49:41;;;;;;;17.85;11.90;;;4.10;99.90;;;;;;5076305;28;20767;-62
2023/03/03 00:52:14;;;;;;;20.50;12.50;;;4.00;99.90;;;;;;5078050;28;20426;-61
2023/03/03 00:54:41;;;;;;;20.55;13.27;;;4.00;99.90;;;;;;5078016;28;20442;-62
2023/03/03 00:57:08;;;;;;;22.02;12.93;;;3.90;99.90;;;;;;5076369;28;20802;-61
2023/03/03 00:59:36;;;;;;;20.63;13.40;;;4.00;99.90;;;;;;5077597;28;20423;-61
2023/03/03 01:02:04;;;;;;;18.10;13.20;;;3.90;99.90;;;;;;5076752;28;20720;-61
2023/03/03 01:04:31;;;;;;;19.75;13.77;;;3.90;99.90;;;;;;5076640;28;20423;-61
2023/03/03 01:06:58;;;;;;;16.00;11.43;;;3.90;99.90;;;;;;5077427;28;20412;-62
2023/03/03 01:09:25;;;;;;;16.73;12.30;;;3.80;99.90;;;;;;5076042;28;20431;-62
2023/03/03 01:11:53;;;;;;;21.33;13.15;;;3.90;99.90;;;;;;5076604;28;20936;-61
2023/03/03 01:14:20;;;;;;;19.65;13.25;;;4.00;99.90;;;;;;5076242;28;20438;-61
2023/03/03 01:16:47;;;;;;;20.92;13.43;;;3.90;99.90;;;;;;5075475;28;20482;-61
2023/03/03 01:19:15;;;;;;;22.02;14.70;;;3.90;99.90;;;;;;5075757;28;20832;-60
2023/03/03 01:21:42;;;;;;;18.10;13.65;;;3.80;99.90;;;;;;5074984;28;20416;-61
2023/03/03 01:24:09;;;;;;;19.35;12.82;;;3.60;99.90;;;;;;5076223;28;20430;-62
2023/03/03 01:26:36;;;;;;;19.95;14.25;;;3.60;99.90;;;;;;5076880;28;20430;-61
2023/03/03 01:29:04;;;;;;;19.13;13.77;;;3.40;99.90;;;;;;5075946;28;20741;-62
2023/03/03 01:31:31;;;;;;;20.92;13.18;;;3.30;99.90;;;;;;5075211;28;20730;-61
2023/03/03 01:33:58;;;;;;;21.07;12.70;;;3.30;99.90;;;;;;5077081;28;20529;-61
2023/03/03 01:36:28;;;;;;;22.13;13.98;;;3.20;99.90;;;;;;5076270;28;20722;-61
2023/03/03 01:38:55;;;;;;;18.60;13.75;;;3.20;99.90;;;;;;5076731;28;20424;-61
2023/03/03 01:41:22;;;;;;;21.45;14.00;;;3.20;99.90;;;;;;5077231;28;20419;-61
2023/03/03 01:43:50;;;;;;;19.20;13.98;;;3.20;99.90;;;;;;5076008;28;20431;-61
2023/03/03 01:46:51;;;;;;;19.17;12.88;;;3.20;99.90;;;;;;5075756;28;20424;-61
2023/03/03 01:49:23;;;;;;;23.13;13.85;;;3.30;99.90;;;;;;5074230;28;20431;-61
2023/03/03 01:51:56;;;;;;;23.45;14.43;;;3.30;99.90;;;;;;5075490;28;20843;-61
2023/03/03 01:54:28;;;;;;;21.70;13.93;;;3.30;99.90;;;;;;5075368;28;20438;-62
2023/03/03 01:57:01;;;;;;;22.37;14.00;;;3.30;99.90;;;;;;5075167;28;20747;-60
2023/03/03 01:59:31;;;;;;;21.85;15.32;;;3.40;99.90;;;;;;5076816;28;20428;-61
2023/03/03 02:01:59;;;;;;;23.77;14.98;;;3.40;99.90;;;;;;5076340;28;20415;-61
2023/03/03 02:04:27;;;;;;;19.25;13.60;;;3.30;99.90;;;;;;5075637;28;20835;-61
2023/03/03 02:07:00;;;;;;;21.73;14.18;;;3.30;99.90;;;;;;5075530;28;20430;-61
2023/03/03 02:09:34;;;;;;;22.35;14.57;;;3.30;99.90;;;;;;5075608;28;20481;-61
2023/03/03 02:12:07;;;;;;;24.02;13.82;;;3.30;99.90;;;;;;5073756;28;20522;-61
2023/03/03 02:14:34;;;;;;;21.17;14.20;;;3.30;99.90;;;;;;5075092;28;20436;-61
2023/03/03 02:17:01;;;;;;;20.50;12.70;;;3.20;99.90;;;;;;5074505;28;20427;-62
2023/03/03 02:19:36;;;;;;;22.10;14.80;;;3.20;99.90;;;;;;5075073;28;20428;-62
2023/03/03 02:22:04;;;;;;;23.30;15.23;;;3.10;99.90;;;;;;5075199;28;20502;-62
2023/03/03 02:24:39;;;;;;;22.30;14.85;;;3.10;99.90;;;;;;5074745;28;20866;-61
2023/03/03 02:27:07;;;;;;;20.50;13.63;;;3.10;99.90;;;;;;5074916;28;20844;-61
2023/03/03 02:29:34;;;;;;;24.98;15.07;;;3.00;99.90;;;;;;5073480;28;20874;-61
2023/03/03 02:32:02;;;;;;;21.80;13.20;;;3.00;99.90;;;;;;5075772;28;20423;-61
2023/03/03 02:34:29;;;;;;;21.47;13.43;;;3.00;99.90;;;;;;5075024;28;20444;-61
2023/03/03 02:36:56;;;;;;;20.25;14.48;;;3.10;99.90;;;;;;5075751;28;20416;-61
2023/03/03 02:39:25;;;;;;;21.60;13.43;;;3.20;99.90;;;;;;5074712;28;20430;-61
2023/03/03 02:41:58;;;;;;;19.75;13.25;;;3.20;99.90;;;;;;5075606;28;20415;-61
2023/03/03 02:44:29;;;;;;;21.58;14.23;;;3.20;99.90;;;;;;5075870;28;20427;-61
2023/03/03 02:46:57;;;;;;;22.50;13.57;;;3.20;99.90;;;;;;5075164;28;20602;-61
2023/03/03 02:49:26;;;;;;;22.40;14.05;;;3.20;99.90;;;;;;5075938;28;20850;-61
2023/03/03 02:51:53;;;;;;;20.77;14.18;;;3.20;99.90;;;;;;5075828;28;20447;-61
2023/03/03 02:54:23;;;;;;;20.77;12.68;;;3.20;99.90;;;;;;5075297;28;20427;-61
2023/03/03 02:56:50;;;;;;;19.55;13.27;;;3.30;99.90;;;;;;5075446;28;20415;-62
2023/03/03 02:59:18;;;;;;;20.35;12.65;;;3.30;99.90;;;;;;5076038;28;20518;-61
2023/03/03 03:01:47;;;;;;;23.03;13.53;;;3.50;99.90;;;;;;5074714;28;20419;-61
2023/03/03 03:04:16;;;;;;;17.95;12.95;;;3.40;99.90;;;;;;5073816;28;20458;-61
2023/03/03 03:06:44;;;;;;;20.60;13.90;;;3.50;99.90;;;;;;5074361;28;20412;-62
2023/03/03 03:09:12;;;;;;;21.20;12.75;;;3.50;99.90;;;;;;5075292;28;20423;-61
2023/03/03 03:11:40;;;;;;;21.88;14.02;;;3.50;99.90;;;;;;5075350;28;20840;-61
2023/03/03 03:14:08;;;;;;;19.20;13.48;;;3.70;99.90;;;;;;5074948;28;20424;-61
2023/03/03 03:16:36;;;;;;;21.95;12.90;;;3.70;99.90;;;;;;5075147;28;20442;-62
2023/03/03 03:19:05;;;;;;;21.13;13.13;;;3.60;99.90;;;;;;5074497;28;20428;-63
2023/03/03 03:21:33;;;;;;;22.15;13.95;;;3.60;99.90;;;;;;5072702;28;20426;-61
2023/03/03 03:24:01;;;;;;;20.30;12.73;;;3.60;99.90;;;;;;5073298;28;20427;-61
2023/03/03 03:26:28;;;;;;;18.70;12.27;;;3.70;99.90;;;;;;5074867;28;20412;-61
2023/03/03 03:28:55;;;;;;;26.30;15.95;;;3.80;99.90;;;;;;5074358;28;20435;-61
2023/03/03 03:31:23;;;;;;;21.80;14.57;;;3.80;99.90;;;;;;5073723;28;20419;-60
2023/03/03 03:33:50;;;;;;;20.98;13.85;;;3.90;99.90;;;;;;5074341;28;20847;-61
2023/03/03 03:36:19;;;;;;;24.10;14.32;;;4.00;99.90;;;;;;5074895;28;20518;-61
2023/03/03 03:38:46;;;;;;;20.48;13.10;;;4.10;99.90;;;;;;5075136;28;20432;-62
2023/03/03 03:41:13;;;;;;;20.25;13.63;;;4.10;99.90;;;;;;5074829;28;20419;-61
2023/03/03 03:43:40;;;;;;;28.75;16.88;;;4.10;99.90;;;;;;5075232;28;20431;-61
2023/03/03 03:46:08;;;;;;;23.88;15.68;;;4.20;99.90;;;;;;5075177;28;20703;-61
2023/03/03 03:48:35;;;;;;;27.40;16.30;;;4.20;99.90;;;;;;5075095;28;20434;-62
2023/03/03 03:51:02;;;;;;;24.10;15.27;;;4.20;99.90;;;;;;5074568;28;20442;-61
2023/03/03 03:53:31;;;;;;;22.20;14.55;;;4.20;99.90;;;;;;5074230;28;20427;-61
2023/03/03 03:55:58;;;;;;;24.23;15.82;;;4.20;99.90;;;;;;5074629;28;20431;-61
2023/03/03 03:58:25;;;;;;;27.05;16.58;;;4.30;99.90;;;;;;5075025;28;20700;-62
2023/03/03 04:00:52;;;;;;;25.35;14.85;;;4.40;99.90;;;;;;5074753;28;20420;-61
2023/03/03 04:03:19;;;;;;;23.20;14.85;;;4.40;99.90;;;;;;5074593;28;20431;-61
2023/03/03 04:05:46;;;;;;;24.38;15.05;;;4.50;99.90;;;;;;5074862;28;20412;-61
2023/03/03 04:08:14;;;;;;;23.23;14.13;;;4.50;99.90;;;;;;5075077;28;20446;-61
2023/03/03 04:10:42;;;;;;;26.35;15.45;;;4.50;99.90;;;;;;5071849;28;20724;-62
2023/03/03 04:13:09;;;;;;;26.23;16.13;;;4.30;99.90;;;;;;5072385;28;20423;-61
2023/03/03 04:15:36;;;;;;;26.30;16.53;;;4.20;99.90;;;;;;5074606;28;20790;-61
2023/03/03 04:18:04;;;;;;;25.00;15.57;;;4.10;99.90;;;;;;5073854;28;20419;-62
2023/03/03 04:20:31;;;;;;;24.88;15.20;;;4.20;99.90;;;;;;5074760;28;20426;-61
2023/03/03 04:22:58;;;;;;;23.10;15.00;;;4.30;99.90;;;;;;5073735;28;20431;-61
2023/03/03 04:25:26;;;;;;;25.00;15.57;;;4.40;99.90;;;;;;5073275;28;20435;-61
2023/03/03 04:27:54;;;;;;;26.70;16.25;;;4.50;99.90;;;;;;5073200;28;20799;-61
2023/03/03 04:30:21;;;;;;;22.85;15.02;;;4.40;99.90;;;;;;5073201;28;20429;-61
2023/03/03 04:32:49;;;;;;;25.33;15.75;;;4.30;99.90;;;;;;5074047;28;20502;-62
2023/03/03 04:35:16;;;;;;;25.88;16.20;;;4.30;99.90;;;;;;5073834;28;20435;-62
2023/03/03 04:37:43;;;;;;;27.13;16.33;;;4.40;99.90;;;;;;5074036;28;20497;-62
2023/03/03 04:40:11;;;;;;;28.23;17.08;;;4.40;99.90;;;;;;5074247;28;20423;-62
2023/03/03 04:42:38;;;;;;;23.73;15.43;;;4.40;99.90;;;;;;5074089;28;20427;-61
2023/03/03 04:45:09;;;;;;;21.98;15.93;;;4.30;99.90;;;;;;5073543;28;20420;-62
2023/03/03 04:47:36;;;;;;;24.33;15.77;;;4.30;99.90;;;;;;5073057;28;20438;-61
2023/03/03 04:50:03;;;;;;;24.33;15.38;;;4.40;99.90;;;;;;5073504;28;20420;-61
2023/03/03 04:52:30;;;;;;;26.83;15.85;;;4.40;99.90;;;;;;5074954;28;20424;-61
2023/03/03 04:54:58;;;;;;;27.42;16.83;;;4.60;99.90;;;;;;5077674;28;20416;-62
2023/03/03 04:57:25;;;;;;;26.20;16.50;;;4.50;99.90;;;;;;5077373;28;20437;-62
2023/03/03 04:59:52;;;;;;;25.80;16.13;;;4.60;99.90;;;;;;5077972;28;20847;-62
2023/03/03 05:02:21;;;;;;;22.98;15.60;;;4.50;99.90;;;;;;5076384;28;20424;-62
2023/03/03 05:04:48;;;;;;;26.60;16.40;;;4.50;99.90;;;;;;5077069;28;20427;-62
2023/03/03 05:07:16;;;;;;;26.10;16.33;;;4.50;99.90;;;;;;5077895;28;20422;-62
2023/03/03 05:09:43;;;;;;;21.88;14.63;;;4.50;99.90;;;;;;5077223;28;20809;-62
2023/03/03 05:12:10;;;;;;;24.90;15.55;;;4.50;99.90;;;;;;5075886;28;20510;-63
2023/03/03 05:14:37;;;;;;;25.38;16.00;;;4.60;99.90;;;;;;5074927;28;20594;-62
2023/03/03 05:17:04;;;;;;;24.88;15.85;;;4.60;99.90;;;;;;5076121;28;20534;-61
2023/03/03 05:19:33;;;;;;;27.20;16.58;;;4.60;99.90;;;;;;5075829;28;20464;-62
2023/03/03 05:22:01;;;;;;;23.63;15.82;;;4.70;99.90;;;;;;5076571;28;20996;-62
2023/03/03 05:24:28;;;;;;;25.30;16.23;;;4.70;99.90;;;;;;5076067;28;20431;-61
2023/03/03 05:26:55;;;;;;;26.38;16.55;;;4.70;99.90;;;;;;5076986;28;20412;-62
2023/03/03 05:29:22;;;;;;;23.75;16.08;;;4.80;99.90;;;;;;5076379;28;20435;-62
2023/03/03 05:31:50;;;;;;;27.87;15.67;;;4.80;99.90;;;;;;5077274;28;20430;-61
2023/03/03 05:34:17;;;;;;;24.77;16.35;;;4.70;99.90;;;;;;5076771;28;20430;-62
2023/03/03 05:36:45;;;;;;;26.05;16.52;;;4.60;99.90;;;;;;5076861;28;20435;-62
2023/03/03 05:39:12;;;;;;;25.50;15.90;;;4.50;99.90;;;;;;5075952;28;20423;-61
2023/03/03 05:41:40;;;;;;;24.02;16.35;;;4.50;99.90;;;;;;5075560;28;20430;-61
2023/03/03 05:44:07;;;;;;;23.88;15.23;;;4.40;99.90;;;;;;5074155;28;20431;-60
2023/03/03 05:46:34;;;;;;;26.02;15.60;;;4.50;99.90;;;;;;5073017;28;20823;-62
2023/03/03 05:49:01;;;;;;;23.25;13.85;;;4.60;99.90;;;;;;5073811;28;20431;-62
2023/03/03 05:51:28;;;;;;;25.00;15.93;;;4.70;99.90;;;;;;5074452;28;20419;-62
2023/03/03 05:53:57;;;;;;;25.52;16.05;;;4.50;99.90;;;;;;5075436;28;20501;-63
2023/03/03 05:56:24;;;;;;;24.45;15.38;;;4.50;99.90;;;;;;5074873;28;20494;-63
2023/03/03 05:58:51;;;;;;;25.60;16.73;;;4.40;99.90;;;;;;5076075;28;20431;-63
2023/03/03 06:01:18;;;;;;;26.50;15.95;;;4.30;99.90;;;;;;5075014;28;20423;-62
2023/03/03 06:03:45;;;;;;;24.10;15.77;;;4.40;99.90;;;;;;5074436;28;20723;-62
2023/03/03 06:06:15;;;;;;;26.33;16.17;;;4.40;99.90;;;;;;5075499;28;20712;-64
2023/03/03 06:08:42;;;;;;;22.80;13.60;;;4.40;99.90;;;;;;5073713;28;20831;-62
2023/03/03 06:11:11;;;;;;;21.90;14.00;;;4.30;99.90;;;;;;5074417;28;21123;-62
2023/03/03 06:13:39;;;;;;;22.05;13.50;;;4.30;99.90;;;;;;5073728;28;20446;-61
2023/03/03 06:16:07;;;;;;;21.88;13.27;;;4.20;99.90;;;;;;5074928;28;20874;-62
2023/03/03 06:18:34;;;;;;;23.13;14.27;;;4.10;99.90;;;;;;5074233;28;20716;-62
2023/03/03 06:21:01;;;;;;;22.05;12.60;;;4.20;99.90;;;;;;5073832;28;20505;-62
2023/03/03 06:23:28;;;;;;;23.13;13.77;;;4.20;99.90;;;;;;5073757;28;20718;-62
2023/03/03 06:25:56;;;;;;;21.10;13.10;;;4.20;99.90;;;;;;5073937;28;20502;-62
2023/03/03 06:28:25;;;;;;;18.63;12.98;;;4.30;99.90;;;;;;5073656;28;20423;-63
2023/03/03 06:30:53;;;;;;;20.27;12.98;;;4.30;99.90;;;;;;5075187;28;20782;-62
2023/03/03 06:33:21;;;;;;;20.05;12.57;;;4.30;99.90;;;;;;5074379;28;20505;-62
2023/03/03 06:35:50;;;;;;;22.33;13.07;;;4.40;99.90;;;;;;5073662;28;20407;-61
2023/03/03 06:38:17;;;;;;;21.98;13.48;;;4.30;99.90;;;;;;5074361;28;20866;-62
2023/03/03 06:40:45;;;;;;;20.90;12.73;;;4.20;99.90;;;;;;5073787;28;20416;-62
2023/03/03 06:43:12;;;;;;;19.77;11.90;;;4.20;99.90;;;;;;5075344;28;20427;-62
2023/03/03 06:45:42;;;;;;;22.67;13.57;;;4.20;99.90;;;;;;5073748;28;20427;-61
2023/03/03 06:48:09;;;;;;;20.92;12.90;;;4.20;99.90;;;;;;5072933;28;20475;-62
2023/03/03 06:50:38;;;;;;;20.17;13.38;;;4.20;99.90;;;;;;5073126;28;20509;-62
2023/03/03 06:53:11;;;;;;;21.23;12.68;;;4.20;99.90;;;;;;5073703;28;20477;-62
2023/03/03 06:55:38;;;;;;;20.63;13.27;;;4.30;99.90;;;;;;5072348;28;20827;-62
2023/03/03 06:58:12;;;;;;;18.17;11.95;;;4.40;99.90;;;;;;5073781;28;20470;-62
2023/03/03 07:00:41;;;;;;;22.30;12.48;;;4.40;99.90;;;;;;5072434;28;20873;-62
2023/03/03 07:03:14;;;;;;;19.73;12.82;;;4.30;99.90;;;;;;5071041;28;20427;-62
2023/03/03 07:05:42;;;;;;;21.23;12.38;;;4.30;99.90;;;;;;5071968;28;20412;-62
2023/03/03 07:08:14;;;;;;;19.53;13.60;;;4.40;99.90;;;;;;5073214;28;20751;-62
2023/03/03 07:10:41;;;;;;;19.95;13.75;;;4.30;99.90;;;;;;5072034;28;20442;-62
2023/03/03 07:13:19;;;;;;;19.77;10.70;;;4.20;99.90;;;;;;5074568;28;20529;-62
2023/03/03 07:15:48;;;;;;;20.80;12.65;;;4.50;99.90;;;;;;5091457;28;20849;-60
2023/03/03 07:18:34;;;;;;;16.60;11.00;;;4.50;99.90;;;;;;5083843;28;20516;-60
2023/03/03 07:21:13;;;;;;;19.67;12.98;;;4.80;99.90;;;;;;5072288;28;20476;-60
2023/03/03 07:23:42;;;;;;;17.27;11.23;;;4.90;99.90;;;;;;5073190;28;20851;-62
2023/03/03 07:26:12;;;;;;;18.80;11.80;;;5.20;99.90;;;;;;5073214;28;20427;-61
2023/03/03 07:28:42;;;;;;;22.33;11.83;;;5.30;99.90;;;;;;5072240;28;20835;-61
2023/03/03 07:31:26;;;;;;;17.55;11.80;;;5.20;99.90;;;;;;5086017;28;20420;-60
2023/03/03 07:33:57;;;;;;;16.05;10.35;;;5.30;99.90;;;;;;5075386;28;20428;-61
2023/03/03 07:36:29;;;;;;;17.02;11.90;;;5.50;99.90;;;;;;5085188;28;20430;-60
2023/03/03 07:38:59;;;;;;;16.05;11.45;;;5.60;99.90;;;;;;5084485;28;20680;-60
2023/03/03 07:41:27;;;;;;;18.35;11.55;;;5.40;99.90;;;;;;5086431;28;20458;-61
2023/03/03 07:43:56;;;;;;;18.65;12.80;;;5.50;99.90;;;;;;5089615;28;20426;-61
2023/03/03 07:46:27;;;;;;;19.75;13.05;;;5.10;99.90;;;;;;5081027;28;20894;-61
2023/03/03 07:48:57;;;;;;;18.15;12.50;;;4.90;99.90;;;;;;5089958;28;20990;-61
2023/03/03 07:51:26;;;;;;;19.60;11.90;;;4.80;99.90;;;;;;5091075;28;21005;-61
2023/03/03 07:54:00;;;;;;;16.93;11.27;;;4.70;99.90;;;;;;5090300;28;20745;-61
2023/03/03 07:56:30;;;;;;;17.67;11.55;;;5.20;99.90;;;;;;5091372;28;20434;-61
2023/03/03 07:58:58;;;;;;;19.42;12.25;;;5.30;99.90;;;;;;5091204;28;20429;-62
2023/03/03 08:01:40;;;;;;;21.23;12.90;;;5.50;99.90;;;;;;5090339;28;20422;-61
2023/03/03 08:04:16;;;;;;;18.10;12.00;;;5.20;99.90;;;;;;5091515;28;20769;-61
2023/03/03 08:06:51;;;;;;;20.85;13.02;;;5.00;99.90;;;;;;5089966;28;20837;-60
2023/03/03 08:09:50;;;;;;;18.40;12.40;;;4.80;99.90;;;;;;5090957;28;20440;-60
2023/03/03 08:12:36;;;;;;;19.55;12.57;;;4.70;99.90;;;;;;5055692;28;20465;-60
2023/03/03 08:15:22;;;;;;;20.50;13.27;;;4.90;99.90;;;;;;5092440;28;20721;-62
2023/03/03 08:17:50;;;;;;;18.70;12.77;;;5.10;99.90;;;;;;5090175;28;20503;-63
2023/03/03 08:20:49;;;;;;;20.77;12.13;;;5.30;99.90;;;;;;5091816;28;20826;-63
2023/03/03 08:23:18;;;;;;;20.77;12.63;;;5.60;99.90;;;;;;5090764;28;20429;-62
2023/03/03 08:25:46;;;;;;;19.60;13.17;;;5.80;99.90;;;;;;5093422;28;20418;-63
2023/03/03 08:28:14;;;;;;;19.77;13.10;;;5.90;99.90;;;;;;5096569;28;20417;-62
2023/03/03 08:30:43;;;;;;;20.20;12.90;;;5.90;99.90;;;;;;5095342;28;20475;-62
2023/03/03 08:33:10;;;;;;;20.05;13.70;;;5.90;99.90;;;;;;5091104;28;20849;-62
2023/03/03 08:35:37;;;;;;;20.20;13.70;;;6.00;99.90;;;;;;5094743;28;20422;-63
2023/03/03 08:38:07;;;;;;;18.85;12.05;;;5.80;99.90;;;;;;5088721;28;20470;-62
2023/03/03 08:40:35;;;;;;;18.42;12.27;;;5.80;99.90;;;;;;5075091;28;20423;-63
2023/03/03 08:43:02;;;;;;;20.10;12.02;;;5.40;99.90;;;;;;5075212;28;20761;-62
2023/03/03 08:45:30;;;;;;;20.40;12.60;;;5.40;99.90;;;;;;5074705;28;20518;-60
2023/03/03 08:47:58;;;;;;;16.58;11.75;;;5.30;99.90;;;;;;5074423;28;20434;-61
2023/03/03 08:50:26;;;;;;;16.13;10.80;;;5.20;99.90;;;;;;5073319;28;20439;-60
2023/03/03 08:52:54;;;;;;;15.47;9.80;;;5.30;99.90;;;;;;5074929;28;20708;-61
2023/03/03 08:55:22;;;;;;;17.15;11.43;;;5.30;99.90;;;;;;5074493;28;20419;-60
2023/03/03 08:57:49;;;;;;;16.73;11.00;;;5.20;99.90;;;;;;5072301;28;20438;-61
2023/03/03 09:00:18;;;;;;;15.35;11.02;;;5.30;99.90;;;;;;5073018;28;20738;-60
2023/03/03 09:02:46;;;;;;;17.52;10.50;;;5.30;99.90;;;;;;5072066;28;20853;-60
2023/03/03 09:05:13;;;;;;;20.10;11.60;;;5.50;99.90;;;;;;5074101;28;20419;-61
2023/03/03 09:07:42;;;;;;;13.75;10.13;;;5.50;99.90;;;;;;5076862;28;20422;-60
2023/03/03 09:10:10;;;;;;;15.48;10.07;;;5.50;99.90;;;;;;5089559;28;20849;-61
2023/03/03 09:12:40;;;;;;;16.88;10.98;;;5.40;99.90;;;;;;5095279;28;20410;-61
2023/03/03 09:15:20;;;;;;;17.67;11.25;;;5.40;99.90;;;;;;5090247;28;20428;-61
2023/03/03 09:17:47;;;;;;;15.97;10.67;;;5.50;99.90;;;;;;5084219;28;20846;-61
2023/03/03 09:20:41;;;;;;;16.77;10.67;;;5.30;99.90;;;;;;5089076;28;20421;-61
2023/03/03 09:23:32;;;;;;;16.33;11.85;;;5.30;99.90;;;;;;5080085;28;20721;-60
2023/03/03 09:26:25;;;;;;;16.90;11.00;;;5.30;99.90;;;;;;5096242;28;20495;-60
2023/03/03 09:28:55;;;;;;;17.27;11.27;;;5.30;99.90;;;;;;5084519;28;20896;-61
2023/03/03 09:31:27;;;;;;;14.18;10.50;;;5.40;99.90;;;;;;5073711;28;20424;-59
2023/03/03 09:33:56;;;;;;;15.80;11.00;;;5.70;99.90;;;;;;5074008;28;20431;-60
2023/03/03 09:36:30;;;;;;;16.40;9.85;;;6.10;99.90;;;;;;5075330;28;20431;-61
2023/03/03 09:38:58;;;;;;;16.35;9.73;;;6.50;99.90;;;;;;5072210;28;20424;-61
2023/03/03 09:41:59;;;;;;;17.70;10.90;;;6.90;99.90;;;;;;5073685;28;20412;-62
2023/03/03 09:45:16;;;;;;;16.35;11.35;;;7.00;99.90;;;;;;5061640;28;20423;-61
2023/03/03 09:48:08;;;;;;;16.42;10.73;;;7.00;99.90;;;;;;5049112;28;20445;-62
2023/03/03 09:50:43;;;;;;;15.80;11.00;;;7.10;99.90;;;;;;5072973;28;20507;-61
2023/03/03 09:53:25;;;;;;;15.20;10.70;;;7.10;99.90;;;;;;5075115;28;20707;-62
2023/03/03 09:56:04;;;;;;;16.42;11.38;;;7.30;99.90;;;;;;5082581;28;20429;-61
2023/03/03 09:58:44;;;;;;;16.77;11.10;;;7.60;99.90;;;;;;5084336;28;20433;-61
2023/03/03 10:01:47;;;;;;;17.00;11.93;;;7.50;99.90;;;;;;5072977;28;20481;-61
2023/03/03 10:04:42;;;;;;;16.90;12.35;;;7.50;99.90;;;;;;5073453;28;20446;-61
2023/03/03 10:07:26;;;;;;;18.30;12.00;;;7.30;99.90;;;;;;5073285;28;20412;-60
2023/03/03 10:10:33;;;;;;;18.42;11.70;;;7.50;99.90;;;;;;5073195;28;20442;-60
2023/03/03 10:13:13;;;;;;;19.90;12.75;;;7.70;99.90;;;;;;5083066;28;20518;-61
2023/03/03 10:15:51;;;;;;;18.20;13.02;;;7.80;99.90;;;;;;5079795;28;20422;-61
2023/03/03 10:18:32;;;;;;;20.92;13.73;;;7.70;99.90;;;;;;5092029;28;20880;-61
2023/03/03 10:21:07;;;;;;;14.73;12.17;;;7.80;99.90;;;;;;5087720;28;20428;-61
2023/03/03 10:23:54;;;;;;;16.77;12.02;;;7.80;99.90;;;;;;5087037;28;20428;-61
2023/03/03 10:26:35;;;;;;;15.80;12.83;;;7.90;99.90;;;;;;5079616;28;20852;-61
2023/03/03 10:29:15;;;;;;;21.10;12.85;;;8.20;99.90;;;;;;5092684;28;20432;-61
2023/03/03 10:31:58;;;;;;;19.07;14.03;;;8.30;99.90;;;;;;5093878;28;20425;-61
2023/03/03 10:34:50;;;;;;;17.60;11.82;;;8.10;99.90;;;;;;5093321;28;20422;-61
2023/03/03 10:37:22;;;;;;;17.20;11.23;;;8.00;99.90;;;;;;5091814;28;20938;-61
2023/03/03 10:40:11;;;;;;;17.15;11.90;;;8.10;99.90;;;;;;5093775;28;20456;-61
2023/03/03 10:43:03;;;;;;;20.05;13.15;;;8.10;99.90;;;;;;5089065;28;20434;-60
2023/03/03 10:45:43;;;;;;;16.83;10.88;;;8.30;99.90;;;;;;5081691;28;20444;-61
2023/03/03 10:48:45;;;;;;;17.10;12.07;;;8.30;99.90;;;;;;5089179;28;20442;-60
2023/03/03 10:51:24;;;;;;;18.15;11.95;;;8.50;99.90;;;;;;5082136;28;20432;-61
2023/03/03 10:54:07;;;;;;;18.45;12.43;;;8.70;99.90;;;;;;5087089;28;20433;-61
2023/03/03 10:56:45;;;;;;;18.10;12.15;;;8.80;99.90;;;;;;5085146;28;20435;-61
2023/03/03 10:59:38;;;;;;;16.30;11.10;;;8.80;99.90;;;;;;5092328;28;20445;-61
2023/03/03 11:02:16;;;;;;;18.35;13.02;;;8.90;99.90;;;;;;5091236;28;20430;-60
2023/03/03 11:05:02;;;;;;;23.50;13.70;;;9.00;99.90;;;;;;5090529;28;20624;-61
2023/03/03 11:07:37;;;;;;;17.25;12.55;;;9.10;99.90;;;;;;5087987;28;20434;-60
2023/03/03 11:10:18;;;;;;;16.45;11.77;;;9.20;99.90;;;;;;5083021;28;20943;-61
2023/03/03 11:12:56;;;;;;;16.48;11.80;;;9.10;99.90;;;;;;5090958;28;20430;-61
2023/03/03 11:15:49;;;;;;;17.75;13.18;;;9.10;99.90;;;;;;5085699;28;20441;-61
2023/03/03 11:18:26;;;;;;;16.70;13.32;;;9.30;99.90;;;;;;5085506;28;20433;-61
2023/03/03 11:21:00;;;;;;;18.35;13.50;;;9.50;99.90;;;;;;5072079;28;20478;-62
2023/03/03 11:23:51;;;;;;;18.58;13.35;;;9.60;99.90;;;;;;5076815;28;21197;-60
2023/03/03 11:26:31;;;;;;;18.48;13.05;;;9.70;99.90;;;;;;5082871;28;20425;-61
2023/03/03 11:29:17;;;;;;;16.48;12.90;;;9.40;99.90;;;;;;5084315;28;20427;-62
2023/03/03 11:31:53;;;;;;;20.17;13.88;;;9.40;99.90;;;;;;5084596;28;21088;-62
2023/03/03 11:34:38;;;;;;;18.00;13.00;;;9.50;99.90;;;;;;5090140;28;20438;-61
2023/03/03 11:37:08;;;;;;;21.15;13.63;;;9.50;99.90;;;;;;5066265;28;20422;-59
2023/03/03 11:39:38;;;;;;;18.85;13.38;;;9.60;99.90;;;;;;5066911;28;20993;-59
2023/03/03 11:42:15;;;;;;;17.20;13.65;;;9.60;99.90;;;;;;5083889;28;20733;-63
2023/03/03 11:44:47;;;;;;;16.33;13.60;;;9.50;99.90;;;;;;5079710;28;20544;-61
2023/03/03 11:47:19;;;;;;;18.30;15.00;;;9.50;99.90;;;;;;5089323;28;20428;-62
2023/03/03 11:49:52;;;;;;;15.73;13.02;;;9.50;99.90;;;;;;5088516;28;20436;-63
2023/03/03 11:52:32;;;;;;;19.67;13.45;;;9.50;99.90;;;;;;5091668;28;20843;-62
2023/03/03 11:55:07;;;;;;;16.83;12.98;;;9.40;99.90;;;;;;5077101;28;20749;-61
2023/03/03 11:57:41;;;;;;;19.88;14.40;;;9.50;99.90;;;;;;5090467;28;20463;-61
2023/03/03 12:00:28;;;;;;;16.90;13.18;;;9.50;99.90;;;;;;5079176;28;20510;-61
2023/03/03 12:03:16;;;;;;;18.20;12.73;;;9.20;99.90;;;;;;5090573;28;20473;-60
2023/03/03 12:05:55;;;;;;;18.90;12.38;;;9.40;99.90;;;;;;5095642;28;20425;-61
2023/03/03 12:08:41;;;;;;;18.20;12.63;;;9.60;99.90;;;;;;5100000;28;20569;-61
2023/03/03 12:11:15;;;;;;;15.13;11.70;;;9.60;99.90;;;;;;5095253;28;20940;-61
2023/03/03 12:13:53;;;;;;;15.50;12.20;;;10.00;99.90;;;;;;5095864;28;20463;-62
2023/03/03 12:16:31;;;;;;;17.98;12.57;;;10.00;99.90;;;;;;5097867;28;20437;-61
2023/03/03 12:19:11;;;;;;;17.73;12.70;;;10.10;99.90;;;;;;5093230;28;20491;-62
2023/03/03 12:22:11;;;;;;;18.15;12.88;;;10.20;99.90;;;;;;5088129;28;20726;-63
2023/03/03 12:25:01;;;;;;;15.85;11.85;;;10.30;99.90;;;;;;5087781;28;20442;-61
2023/03/03 12:27:42;;;;;;;19.48;13.13;;;10.50;99.90;;;;;;5092545;28;20433;-62
2023/03/03 12:30:19;;;;;;;13.82;11.35;;;10.70;99.90;;;;;;5099154;28;20717;-61
2023/03/03 12:33:10;;;;;;;17.67;12.40;;;10.80;99.90;;;;;;5097623;28;20689;-61
2023/03/03 12:35:43;;;;;;;16.02;11.93;;;10.70;99.90;;;;;;5099165;28;20486;-60
2023/03/03 12:38:21;;;;;;;16.48;11.57;;;10.80;99.90;;;;;;5098829;28;20524;-61
2023/03/03 12:40:55;;;;;;;19.77;13.07;;;10.60;99.90;;;;;;5098839;28;20726;-62
2023/03/03 12:43:40;;;;;;;17.98;12.60;;;10.50;99.90;;;;;;5096887;28;20891;-61
2023/03/03 12:46:16;;;;;;;17.52;11.60;;;10.80;99.90;;;;;;5079129;28;20434;-62
2023/03/03 12:48:45;;;;;;;16.23;12.00;;;10.70;99.90;;;;;;5092938;28;20426;-61
2023/03/03 12:51:26;;;;;;;17.60;13.38;;;10.70;99.90;;;;;;5098897;28;20836;-62
2023/03/03 12:54:16;;;;;;;17.55;12.15;;;10.60;99.90;;;;;;5098508;28;20720;-61
2023/03/03 12:56:48;;;;;;;14.38;10.98;;;10.60;99.90;;;;;;5098429;28;20697;-62
2023/03/03 12:59:22;;;;;;;13.10;10.30;;;10.50;99.90;;;;;;5098487;28;20714;-62
2023/03/03 13:02:03;;;;;;;12.80;10.60;;;10.60;99.90;;;;;;5099207;28;20541;-61
2023/03/03 13:04:36;;;;;;;13.52;10.43;;;10.60;99.90;;;;;;5096536;28;20421;-62